LiveATC.Net - Listen to live air traffic control over the Internet! Contact LiveATC.net for advertising information


ICAO: KJWY  IATA: JWY   Airport: Mid-Way Regional Airport
City: Midlothian/Waxahachie   State/Province: Texas
Country: United States   Continent: North America
KJWY METAR Weather: KJWY 240155Z AUTO 00000KT 10SM CLR 20/08 A3011 RMK AO2 T01950075
KJWY Flight Activity (FlightAware)
KJWY Airport Info   (AirNav) (iFlightPlanner)
KJWY CTAF/Unicom
Feed Status: DOWN
Last heard on: 2014-09-10 21:32:03 (13 days 4 hours 51 minutes ago)
KJWY CTAF/Unicom Audio Archives
FacilityFrequency
Mid-Way CTAF/UNICOM122.975


NOTICE

Unauthorized use prohibited. See LiveATC.net Terms of Service


Find LiveATC Audio Streams


Airport/ARTCC Code

Frequency
(e.g., 124.400, 128.75)
Site-wide search

Browse LiveATC Feeds
LiveATC Coverage Map
Top 50 LiveATC Feeds
Bad Weather Areas

LiveATC FAQ
Offer a LiveATC Feed
Contact LiveATC.net
Press Inquiries

LiveATC on iPhone
LiveATC on Android

LiveATC Mobile
(Mobile browser)

ATC Audio Archives
Interesting Recordings

LiveATC Forums


Home Page
About LiveATC.net
Make a Donation
LiveATC Bookstore

Terms of Use
Privacy Policy

ATC/Radar Sites
U.S. ARTCC Freqs
Canadian Air Freqs

AIRMETs/SIGMETs

FAA Airport Status
Nat'l Airspace Status
Arrival Demand Charts


Server Software By:
Icecast.org
Liquidsoap

Please make a donation to help us keep growing!